Time;durP1;ratioP1;P1;durP2;ratioP2;P2;SDS_P1;SDS_P2;PMS_P1;PMS_P2;Temp;Humidity;BMP_temperature;BMP_pressure;BME280_temperature;BME280_humidity;BME280_pressure;Samples;Min_cycle;Max_cycle;Signal;HPM_P1;HPM_P2
2021/12/30 00:00:57;;;;;;;40.30;4.13;;;8.10;99.90;;;;;;5116022;27;20058;-82
2021/12/30 00:03:23;;;;;;;50.33;4.45;;;8.10;99.90;;;;;;5095707;27;20665;-82
2021/12/30 00:05:52;;;;;;;45.53;5.13;;;8.10;99.90;;;;;;5111051;27;20130;-84
2021/12/30 00:08:17;;;;;;;56.00;6.22;;;8.20;99.90;;;;;;5102004;27;20654;-83
2021/12/30 00:10:43;;;;;;;39.63;4.63;;;8.20;99.90;;;;;;5091042;27;20134;-83
2021/12/30 00:13:09;;;;;;;42.67;4.95;;;8.20;99.90;;;;;;5096330;27;20133;-83
2021/12/30 00:15:36;;;;;;;48.88;5.30;;;8.20;99.90;;;;;;5108208;27;20125;-82
2021/12/30 00:18:02;;;;;;;60.60;6.30;;;8.20;99.90;;;;;;5109019;27;20045;-83
2021/12/30 00:20:29;;;;;;;51.65;5.53;;;8.20;99.90;;;;;;5097972;27;20546;-83
2021/12/30 00:22:54;;;;;;;48.08;5.80;;;8.20;99.90;;;;;;5122317;27;20038;-83
2021/12/30 00:25:20;;;;;;;66.32;6.45;;;8.20;99.90;;;;;;5113558;27;20165;-82
2021/12/30 00:27:46;;;;;;;51.08;5.43;;;8.20;99.90;;;;;;5105983;28;20095;-83
2021/12/30 00:30:13;;;;;;;38.15;5.45;;;8.20;99.90;;;;;;5091831;28;20046;-83
2021/12/30 00:32:39;;;;;;;58.47;6.22;;;8.20;99.90;;;;;;5092725;28;20047;-83
2021/12/30 00:35:05;;;;;;;55.97;5.80;;;8.20;99.90;;;;;;5095131;27;20396;-83
2021/12/30 00:37:31;;;;;;;59.92;5.93;;;8.20;99.90;;;;;;5120675;27;20050;-83
2021/12/30 00:39:57;;;;;;;43.92;6.07;;;8.20;99.90;;;;;;5117671;27;20039;-83
2021/12/30 00:42:22;;;;;;;60.38;6.63;;;8.20;99.90;;;;;;5117589;27;20074;-83
2021/12/30 00:44:48;;;;;;;56.35;6.20;;;8.20;99.90;;;;;;5114727;27;20042;-83
2021/12/30 00:47:14;;;;;;;68.72;7.00;;;8.20;99.90;;;;;;5097092;28;20055;-83
2021/12/30 00:49:40;;;;;;;57.25;6.18;;;8.20;99.90;;;;;;5107905;27;20047;-82
2021/12/30 00:52:06;;;;;;;47.88;5.65;;;8.20;99.90;;;;;;5116979;27;20046;-83
2021/12/30 00:54:31;;;;;;;54.88;6.07;;;8.20;99.90;;;;;;5079375;28;20059;-83
2021/12/30 00:56:59;;;;;;;54.22;7.22;;;8.20;99.90;;;;;;5092130;28;20058;-83
2021/12/30 00:59:25;;;;;;;52.75;5.93;;;8.20;99.90;;;;;;5075150;28;20714;-83
2021/12/30 01:01:50;;;;;;;58.50;6.07;;;8.10;99.90;;;;;;5074023;28;20036;-83
2021/12/30 01:04:16;;;;;;;64.63;6.20;;;8.10;99.90;;;;;;5073564;28;20142;-82
2021/12/30 01:06:42;;;;;;;65.65;6.65;;;8.10;99.90;;;;;;5092167;27;20047;-83
2021/12/30 01:09:07;;;;;;;57.65;8.20;;;8.10;99.90;;;;;;5095918;28;20420;-82
2021/12/30 01:11:33;;;;;;;53.08;6.10;;;8.00;99.90;;;;;;5057989;28;20048;-83
2021/12/30 01:14:15;;;;;;;61.80;6.32;;;8.10;99.90;;;;;;5090624;28;20134;-83
2021/12/30 01:16:44;;;;;;;53.10;6.28;;;8.00;99.90;;;;;;5054277;28;20059;-83
2021/12/30 01:19:42;;;;;;;53.85;5.72;;;8.00;99.90;;;;;;5106685;27;20427;-82
2021/12/30 01:22:26;;;;;;;67.78;5.95;;;8.00;99.90;;;;;;5088327;28;20066;-83
2021/12/30 01:24:53;;;;;;;44.00;6.65;;;7.90;99.90;;;;;;5073247;28;20073;-83
2021/12/30 01:27:20;;;;;;;56.30;6.68;;;7.90;99.90;;;;;;5090486;27;20100;-83
2021/12/30 01:29:47;;;;;;;57.45;5.72;;;7.80;99.90;;;;;;5110240;27;20051;-83
2021/12/30 01:32:13;;;;;;;63.10;7.80;;;7.80;99.90;;;;;;5094849;27;20049;-82
2021/12/30 01:34:39;;;;;;;55.05;6.53;;;7.80;99.90;;;;;;5089037;28;20122;-82
2021/12/30 01:37:05;;;;;;;60.50;6.57;;;7.70;99.90;;;;;;5100752;27;20062;-83
2021/12/30 01:39:33;;;;;;;47.72;7.00;;;7.70;99.90;;;;;;5094373;27;20138;-83
2021/12/30 01:42:00;;;;;;;60.80;7.22;;;7.60;99.90;;;;;;5110758;27;20112;-84
2021/12/30 01:44:28;;;;;;;55.92;6.50;;;7.60;99.90;;;;;;5085130;28;20194;-83
2021/12/30 01:46:55;;;;;;;62.53;6.50;;;7.60;99.90;;;;;;5072922;28;20044;-83
2021/12/30 01:49:21;;;;;;;58.33;6.82;;;7.60;99.90;;;;;;5090631;28;20701;-82
2021/12/30 01:51:48;;;;;;;47.40;5.88;;;7.50;99.90;;;;;;5071965;28;20419;-82
2021/12/30 01:54:14;;;;;;;47.33;5.78;;;7.50;99.90;;;;;;5075047;27;20246;-83
2021/12/30 01:56:40;;;;;;;48.97;5.47;;;7.50;99.90;;;;;;5103181;27;20047;-83
2021/12/30 01:59:07;;;;;;;59.33;6.75;;;7.50;99.90;;;;;;5073176;28;20050;-82
2021/12/30 02:01:33;;;;;;;57.33;5.18;;;7.50;99.90;;;;;;5090109;28;20501;-83
2021/12/30 02:03:59;;;;;;;55.42;5.75;;;7.40;99.90;;;;;;5072686;28;20464;-82
2021/12/30 02:06:25;;;;;;;61.05;5.38;;;7.40;99.90;;;;;;5077863;28;20074;-83
2021/12/30 02:08:51;;;;;;;55.47;6.55;;;7.40;99.90;;;;;;5076595;27;20079;-82
2021/12/30 02:11:19;;;;;;;55.28;5.53;;;7.40;99.90;;;;;;5079274;28;20048;-84
2021/12/30 02:13:46;;;;;;;43.13;6.07;;;7.40;99.90;;;;;;5062679;28;20139;-83
2021/12/30 02:16:15;;;;;;;57.92;5.65;;;7.40;99.90;;;;;;5078650;28;20079;-82
2021/12/30 02:18:40;;;;;;;53.65;5.43;;;7.40;99.90;;;;;;5095650;27;20044;-82
2021/12/30 02:21:06;;;;;;;49.10;6.43;;;7.80;99.90;;;;;;5075598;28;20092;-82
2021/12/30 02:23:35;;;;;;;45.38;6.18;;;7.40;99.90;;;;;;5055902;28;20522;-82
2021/12/30 02:26:05;;;;;;;59.22;6.28;;;7.40;99.90;;;;;;5080174;28;20036;-82
2021/12/30 02:28:33;;;;;;;43.13;5.45;;;7.30;99.90;;;;;;5079702;28;20513;-82
2021/12/30 02:31:01;;;;;;;47.47;5.40;;;7.30;99.90;;;;;;5068932;28;20047;-82
2021/12/30 02:33:27;;;;;;;60.83;7.05;;;7.30;99.90;;;;;;5070373;27;20034;-83
2021/12/30 02:35:54;;;;;;;57.97;6.00;;;7.30;99.90;;;;;;5069701;28;20066;-83
2021/12/30 02:38:22;;;;;;;52.88;5.93;;;7.30;99.90;;;;;;5088148;28;20053;-83
2021/12/30 02:40:51;;;;;;;64.25;6.78;;;7.30;99.90;;;;;;5072442;28;20043;-83
2021/12/30 02:43:23;;;;;;;60.72;6.22;;;7.30;99.90;;;;;;5088897;28;20043;-84
2021/12/30 02:45:49;;;;;;;57.63;6.30;;;7.30;99.90;;;;;;5085983;28;20051;-83
2021/12/30 02:48:26;;;;;;;65.05;7.22;;;7.30;99.90;;;;;;5093162;27;20043;-82
2021/12/30 02:50:54;;;;;;;66.85;7.28;;;7.30;99.90;;;;;;5073657;28;20051;-83
2021/12/30 02:53:20;;;;;;;51.63;6.30;;;7.30;99.90;;;;;;5073388;27;20099;-82
2021/12/30 02:55:48;;;;;;;71.57;6.93;;;7.30;99.90;;;;;;5071253;28;20571;-83
2021/12/30 02:58:15;;;;;;;55.58;6.75;;;7.30;99.90;;;;;;5089100;28;20165;-82
2021/12/30 03:00:42;;;;;;;56.00;7.43;;;7.30;99.90;;;;;;5071173;28;20047;-83
2021/12/30 03:03:19;;;;;;;63.92;7.38;;;7.30;99.90;;;;;;5087835;28;20515;-82
2021/12/30 03:05:45;;;;;;;50.92;7.07;;;7.30;99.90;;;;;;5075089;28;20392;-82
2021/12/30 03:08:11;;;;;;;65.50;6.93;;;7.40;99.90;;;;;;5087933;28;20083;-82
2021/12/30 03:10:36;;;;;;;61.20;8.25;;;7.40;99.90;;;;;;5082867;28;20085;-83
2021/12/30 03:13:10;;;;;;;69.35;8.73;;;7.30;99.90;;;;;;5090347;28;20032;-83
2021/12/30 03:15:37;;;;;;;81.95;9.15;;;7.50;99.90;;;;;;5071743;28;20511;-83
2021/12/30 03:18:03;;;;;;;71.55;9.30;;;7.60;99.90;;;;;;5071711;28;20042;-83
2021/12/30 03:20:35;;;;;;;64.18;9.85;;;8.10;99.90;;;;;;5112142;27;20043;-83
2021/12/30 03:23:01;;;;;;;68.05;8.57;;;7.70;99.90;;;;;;5067654;28;20090;-83
2021/12/30 03:25:28;;;;;;;62.20;9.20;;;7.70;99.90;;;;;;5070892;28;20083;-82
2021/12/30 03:27:54;;;;;;;77.85;9.90;;;7.70;99.90;;;;;;5067925;28;20040;-83
2021/12/30 03:30:20;;;;;;;71.82;9.00;;;7.70;99.90;;;;;;5084489;28;20054;-83
2021/12/30 03:32:46;;;;;;;61.97;8.98;;;7.70;99.90;;;;;;5085694;28;20514;-82
2021/12/30 03:35:13;;;;;;;76.50;8.93;;;7.70;99.90;;;;;;5075626;28;20040;-83
2021/12/30 03:37:39;;;;;;;96.40;10.68;;;7.90;99.90;;;;;;5062384;28;20040;-83
2021/12/30 03:40:08;;;;;;;58.03;9.45;;;7.80;99.90;;;;;;5057771;27;20055;-83
2021/12/30 03:42:34;;;;;;;69.72;11.13;;;7.80;99.90;;;;;;5088007;28;20082;-83
2021/12/30 03:45:02;;;;;;;69.85;10.40;;;7.80;99.90;;;;;;5087982;28;20075;-83
2021/12/30 03:47:28;;;;;;;72.15;11.70;;;7.90;99.90;;;;;;5099125;28;20122;-83
2021/12/30 03:49:54;;;;;;;83.45;12.15;;;7.90;99.90;;;;;;5069834;28;20119;-83
2021/12/30 03:52:26;;;;;;;108.80;12.38;;;7.90;99.90;;;;;;5086208;28;20143;-82
2021/12/30 03:54:52;;;;;;;69.95;11.98;;;8.10;99.90;;;;;;5084898;27;20521;-83
2021/12/30 03:57:17;;;;;;;81.15;12.98;;;7.90;99.90;;;;;;5108379;27;20039;-81
2021/12/30 03:59:43;;;;;;;93.43;13.20;;;8.00;99.90;;;;;;5088281;27;20046;-83
2021/12/30 04:02:09;;;;;;;68.47;11.38;;;8.00;99.90;;;;;;5074499;27;20492;-82
2021/12/30 04:04:35;;;;;;;78.05;11.25;;;8.10;99.90;;;;;;5100002;28;20039;-84
2021/12/30 04:07:01;;;;;;;69.43;11.80;;;8.20;99.90;;;;;;5105769;27;20091;-82
2021/12/30 04:09:27;;;;;;;78.47;13.85;;;8.20;99.90;;;;;;5091540;27;20050;-83
2021/12/30 04:11:53;;;;;;;91.55;11.98;;;8.20;99.90;;;;;;5090984;27;20035;-83
2021/12/30 04:14:19;;;;;;;81.15;11.82;;;8.20;99.90;;;;;;5107405;27;20103;-82
2021/12/30 04:16:45;;;;;;;71.20;9.93;;;8.20;99.90;;;;;;5090909;27;20043;-82
2021/12/30 04:19:10;;;;;;;69.85;9.73;;;8.20;99.90;;;;;;5094886;28;20054;-82
2021/12/30 04:21:36;;;;;;;84.95;11.20;;;8.30;99.90;;;;;;5096392;27;20050;-83
2021/12/30 04:24:03;;;;;;;89.60;10.48;;;8.30;99.90;;;;;;5108479;27;20403;-82
2021/12/30 04:26:29;;;;;;;81.32;11.50;;;8.30;99.90;;;;;;5108267;28;20039;-82
2021/12/30 04:28:56;;;;;;;70.80;10.75;;;8.30;99.90;;;;;;5090643;27;20077;-82
2021/12/30 04:31:22;;;;;;;93.28;11.55;;;8.40;99.90;;;;;;5108158;27;20047;-82
2021/12/30 04:33:48;;;;;;;80.10;11.55;;;8.40;99.90;;;;;;5100843;28;20051;-82
2021/12/30 04:36:14;;;;;;;72.78;10.65;;;8.40;99.90;;;;;;5090855;28;20503;-82
2021/12/30 04:38:40;;;;;;;81.65;12.15;;;8.50;99.90;;;;;;5088711;28;20043;-82
2021/12/30 04:41:06;;;;;;;78.35;11.88;;;8.50;99.90;;;;;;5092209;28;20381;-83
2021/12/30 04:43:32;;;;;;;100.00;12.40;;;8.60;99.90;;;;;;5084023;28;20126;-83
2021/12/30 04:46:00;;;;;;;81.47;13.75;;;8.60;99.90;;;;;;5095972;27;20356;-82
2021/12/30 04:48:26;;;;;;;92.35;12.02;;;8.70;99.90;;;;;;5093842;28;20415;-82
2021/12/30 04:50:53;;;;;;;81.05;13.02;;;8.70;99.90;;;;;;5107182;28;20035;-81
2021/12/30 04:53:19;;;;;;;93.82;13.07;;;8.80;99.90;;;;;;5090217;28;20055;-82
2021/12/30 04:55:45;;;;;;;92.72;15.88;;;8.80;99.90;;;;;;5096618;28;20055;-82
2021/12/30 04:58:12;;;;;;;98.78;15.02;;;8.90;99.90;;;;;;5087627;28;20036;-81
2021/12/30 05:00:38;;;;;;;83.72;14.43;;;9.00;99.90;;;;;;5070420;28;20084;-81
2021/12/30 05:05:30;;;;;;;84.88;14.48;;;9.20;99.90;;;;;;5096655;28;20551;-82
2021/12/30 05:07:56;;;;;;;99.72;16.92;;;9.30;99.90;;;;;;5089187;28;20084;-82
2021/12/30 05:10:22;;;;;;;108.63;16.77;;;9.30;99.90;;;;;;5103073;27;20582;-82
2021/12/30 05:12:49;;;;;;;105.32;17.77;;;9.40;99.90;;;;;;5094304;28;20044;-82
2021/12/30 05:15:14;;;;;;;107.35;18.70;;;9.40;99.90;;;;;;5071485;28;20046;-82
2021/12/30 05:17:41;;;;;;;104.35;18.25;;;9.50;99.90;;;;;;5106284;28;20492;-82
2021/12/30 05:20:08;;;;;;;117.38;19.15;;;9.50;99.90;;;;;;5108197;28;20194;-82
2021/12/30 05:22:34;;;;;;;93.00;19.92;;;9.60;99.90;;;;;;5102338;27;20124;-82
2021/12/30 05:25:00;;;;;;;99.40;19.48;;;9.60;99.90;;;;;;5089898;27;20079;-84
2021/12/30 05:27:25;;;;;;;123.95;20.25;;;9.70;99.90;;;;;;5095015;27;20152;-81
2021/12/30 05:29:51;;;;;;;116.38;21.15;;;9.70;99.90;;;;;;5091397;28;20517;-82
2021/12/30 05:32:17;;;;;;;137.82;21.67;;;9.80;99.90;;;;;;5094390;28;20043;-81
2021/12/30 05:34:42;;;;;;;112.32;21.75;;;9.80;99.90;;;;;;5108695;27;20418;-83
2021/12/30 05:37:08;;;;;;;132.45;22.40;;;9.80;99.90;;;;;;5110343;27;20087;-82
2021/12/30 05:39:39;;;;;;;89.45;18.67;;;9.90;99.90;;;;;;5087998;28;20047;-82
2021/12/30 05:42:05;;;;;;;75.70;16.42;;;9.90;99.90;;;;;;5108841;27;20423;-83
2021/12/30 05:44:31;;;;;;;76.85;18.05;;;10.00;99.90;;;;;;5099643;28;20036;-82
2021/12/30 05:46:56;;;;;;;68.22;15.40;;;10.00;99.90;;;;;;5110172;27;20117;-82
2021/12/30 05:49:22;;;;;;;53.17;15.45;;;10.00;99.90;;;;;;5087826;27;20040;-83
2021/12/30 05:51:48;;;;;;;58.38;15.32;;;10.00;99.90;;;;;;5084414;27;20070;-83
2021/12/30 05:54:13;;;;;;;60.15;15.50;;;10.10;99.90;;;;;;5093481;27;20427;-82
2021/12/30 05:56:39;;;;;;;66.00;14.65;;;10.10;99.90;;;;;;5084218;27;20046;-82
2021/12/30 05:59:05;;;;;;;53.80;13.73;;;10.10;99.90;;;;;;5110248;27;20035;-83
2021/12/30 06:01:30;;;;;;;52.63;13.48;;;10.10;99.90;;;;;;5086960;28;20715;-83
2021/12/30 06:03:56;;;;;;;49.45;13.50;;;10.10;99.90;;;;;;5124797;27;20441;-82
2021/12/30 06:06:23;;;;;;;54.92;14.52;;;10.10;99.90;;;;;;5108967;27;20450;-83
2021/12/30 06:08:50;;;;;;;64.78;13.65;;;10.10;99.90;;;;;;5113480;27;20029;-83
2021/12/30 06:11:16;;;;;;;51.10;14.30;;;10.40;99.90;;;;;;5085118;27;20055;-82
2021/12/30 06:13:42;;;;;;;51.08;13.75;;;10.20;99.90;;;;;;5094836;28;20052;-83
2021/12/30 06:16:11;;;;;;;55.95;15.55;;;10.20;99.90;;;;;;5138653;27;20053;-83
2021/12/30 06:18:36;;;;;;;56.30;15.65;;;10.20;99.90;;;;;;5086735;28;20040;-83
2021/12/30 06:21:02;;;;;;;63.78;15.95;;;10.20;99.90;;;;;;5119196;27;20058;-83
2021/12/30 06:23:28;;;;;;;82.68;18.27;;;10.20;99.90;;;;;;5120325;27;20492;-83
2021/12/30 06:25:54;;;;;;;76.65;17.55;;;10.30;99.90;;;;;;5113182;27;20051;-83
2021/12/30 06:28:19;;;;;;;68.85;18.50;;;10.40;99.90;;;;;;5104522;27;20402;-82
2021/12/30 06:30:45;;;;;;;81.85;18.02;;;10.30;99.90;;;;;;5104462;27;20050;-82
2021/12/30 06:33:11;;;;;;;73.22;18.95;;;10.30;99.90;;;;;;5102738;28;20131;-82
2021/12/30 06:35:36;;;;;;;79.00;18.92;;;10.30;99.90;;;;;;5097196;27;20050;-83
2021/12/30 06:38:03;;;;;;;94.65;21.95;;;10.40;99.90;;;;;;5093920;27;20395;-82
2021/12/30 06:40:29;;;;;;;88.45;20.05;;;10.40;99.90;;;;;;5065232;28;20516;-83
2021/12/30 06:42:55;;;;;;;107.80;20.63;;;10.40;99.90;;;;;;5089932;27;20118;-82
2021/12/30 06:45:21;;;;;;;116.88;20.35;;;10.40;99.90;;;;;;5092850;27;20149;-82
2021/12/30 06:47:47;;;;;;;123.38;21.85;;;10.50;99.90;;;;;;5109055;27;20039;-81
2021/12/30 06:50:14;;;;;;;92.68;19.10;;;10.40;99.90;;;;;;5089713;28;20043;-82
2021/12/30 06:52:42;;;;;;;75.20;17.30;;;10.40;99.90;;;;;;5083059;28;20047;-82
2021/12/30 06:55:09;;;;;;;69.00;16.17;;;10.50;99.90;;;;;;5081778;27;20085;-81
2021/12/30 06:57:35;;;;;;;87.15;17.70;;;10.50;99.90;;;;;;5096993;27;20390;-82
2021/12/30 07:00:06;;;;;;;67.28;16.95;;;10.50;99.90;;;;;;5084761;27;20057;-82
2021/12/30 07:02:33;;;;;;;79.05;15.77;;;10.50;99.90;;;;;;5092286;27;20100;-82
2021/12/30 07:04:59;;;;;;;73.22;14.85;;;10.50;99.90;;;;;;5088499;27;20124;-82
2021/12/30 07:07:25;;;;;;;64.90;14.80;;;10.50;99.90;;;;;;5093016;27;20188;-82
2021/12/30 07:09:51;;;;;;;64.07;14.63;;;10.70;99.90;;;;;;5092203;27;20385;-82
2021/12/30 07:12:17;;;;;;;62.22;12.40;;;10.60;99.90;;;;;;5092928;27;20047;-82
2021/12/30 07:14:43;;;;;;;44.40;12.40;;;10.60;99.90;;;;;;5116912;27;20043;-83
2021/12/30 07:17:09;;;;;;;40.20;11.85;;;10.60;99.90;;;;;;5108105;27;20550;-82
2021/12/30 07:19:34;;;;;;;38.75;11.02;;;10.60;99.90;;;;;;5080884;27;20047;-83
2021/12/30 07:22:00;;;;;;;40.20;12.25;;;10.60;99.90;;;;;;5073093;28;20039;-81
2021/12/30 07:24:26;;;;;;;37.70;10.77;;;10.80;99.90;;;;;;5082697;27;20125;-81
2021/12/30 07:26:51;;;;;;;34.58;10.60;;;10.70;99.90;;;;;;5098179;27;20055;-81
2021/12/30 07:29:18;;;;;;;32.47;9.70;;;10.70;99.90;;;;;;5100407;28;20127;-81
2021/12/30 07:31:44;;;;;;;37.45;10.52;;;10.70;99.90;;;;;;5081797;27;20041;-81
2021/12/30 07:34:09;;;;;;;40.38;10.45;;;10.70;99.90;;;;;;5085638;27;20181;-81
2021/12/30 07:36:35;;;;;;;33.60;9.93;;;10.70;99.90;;;;;;5082845;28;20047;-82
2021/12/30 07:39:01;;;;;;;32.67;9.88;;;10.80;99.90;;;;;;5093616;27;20044;-81
2021/12/30 07:41:26;;;;;;;23.55;8.45;;;10.80;99.90;;;;;;5132105;27;20735;-81
2021/12/30 07:43:52;;;;;;;27.50;9.20;;;10.80;99.90;;;;;;5127296;27;20036;-82
2021/12/30 07:46:18;;;;;;;24.17;9.00;;;10.80;99.90;;;;;;5078364;27;20172;-81
2021/12/30 07:48:44;;;;;;;25.70;8.77;;;10.80;99.90;;;;;;5096323;27;20064;-82
2021/12/30 07:51:09;;;;;;;23.33;8.55;;;10.80;99.90;;;;;;5095080;27;20046;-82
2021/12/30 07:53:37;;;;;;;32.50;9.60;;;10.80;99.90;;;;;;5099237;27;20047;-81
2021/12/30 07:56:03;;;;;;;26.17;8.90;;;10.70;99.90;;;;;;5082062;28;20055;-81
2021/12/30 07:58:29;;;;;;;23.60;8.60;;;10.90;99.90;;;;;;5121207;27;20046;-81
2021/12/30 08:00:55;;;;;;;13.93;6.97;;;10.90;99.90;;;;;;5098245;27;20369;-81
2021/12/30 08:03:20;;;;;;;20.25;7.55;;;10.90;99.90;;;;;;5104857;27;20514;-82
2021/12/30 08:05:46;;;;;;;13.80;6.10;;;10.90;99.90;;;;;;5105590;27;20070;-82
2021/12/30 08:08:12;;;;;;;11.65;6.13;;;11.00;99.90;;;;;;5071805;28;20048;-81
2021/12/30 08:10:37;;;;;;;14.05;6.35;;;10.90;99.90;;;;;;5100549;27;20043;-81
2021/12/30 08:13:03;;;;;;;13.23;6.72;;;10.90;99.90;;;;;;5087779;27;20407;-81
2021/12/30 08:15:29;;;;;;;16.30;6.50;;;11.00;99.90;;;;;;5105247;27;20047;-84
2021/12/30 08:17:54;;;;;;;12.43;5.57;;;11.00;99.90;;;;;;5088915;28;20043;-81
2021/12/30 08:20:22;;;;;;;10.75;5.30;;;11.00;99.90;;;;;;5062563;28;20563;-81
2021/12/30 08:22:50;;;;;;;13.48;6.00;;;11.00;99.90;;;;;;5129324;27;20036;-84
2021/12/30 08:25:16;;;;;;;13.55;6.00;;;11.00;99.90;;;;;;5088973;27;20035;-82
2021/12/30 08:27:43;;;;;;;12.48;5.93;;;11.00;99.90;;;;;;5098119;28;20338;-81
2021/12/30 08:30:15;;;;;;;11.93;6.20;;;11.00;99.90;;;;;;5086617;27;20027;-81
2021/12/30 08:32:41;;;;;;;12.30;6.47;;;11.10;99.90;;;;;;5106695;27;20047;-81
2021/12/30 08:35:09;;;;;;;14.85;6.90;;;11.10;99.90;;;;;;5072825;28;20051;-82
2021/12/30 08:37:35;;;;;;;20.90;7.85;;;11.10;99.90;;;;;;5058205;28;20443;-81
2021/12/30 08:40:06;;;;;;;21.63;8.48;;;11.10;99.90;;;;;;5101257;28;20047;-83
2021/12/30 08:42:33;;;;;;;22.80;8.70;;;11.10;99.90;;;;;;5083968;28;20518;-82
2021/12/30 08:44:59;;;;;;;19.98;9.80;;;11.10;99.90;;;;;;5090907;28;20213;-81
2021/12/30 08:47:27;;;;;;;26.55;8.68;;;11.10;99.90;;;;;;5069584;27;20547;-84
2021/12/30 08:49:53;;;;;;;19.75;7.18;;;11.20;99.90;;;;;;5075107;27;20078;-81
2021/12/30 08:52:23;;;;;;;22.27;7.43;;;11.70;99.90;;;;;;5079513;28;20043;-80
2021/12/30 08:54:49;;;;;;;21.65;7.40;;;11.20;99.90;;;;;;5091135;28;20467;-81
2021/12/30 08:57:16;;;;;;;22.88;7.05;;;11.20;99.90;;;;;;5073646;27;20039;-81
2021/12/30 08:59:42;;;;;;;20.38;6.68;;;11.20;99.90;;;;;;5102007;27;20402;-81
2021/12/30 09:02:09;;;;;;;24.38;7.32;;;11.30;99.90;;;;;;5106797;27;20470;-81
2021/12/30 09:04:36;;;;;;;20.67;7.05;;;11.60;99.90;;;;;;5079923;27;20552;-81
2021/12/30 09:07:03;;;;;;;32.05;6.80;;;11.20;99.90;;;;;;5082984;27;20477;-81
2021/12/30 09:09:29;;;;;;;22.08;6.43;;;11.20;99.90;;;;;;5086567;27;20054;-83
2021/12/30 09:11:55;;;;;;;32.08;7.30;;;11.10;99.90;;;;;;5103196;27;20153;-82
2021/12/30 09:14:21;;;;;;;20.83;6.68;;;11.20;99.90;;;;;;5091350;27;20114;-82
2021/12/30 09:16:48;;;;;;;31.42;6.88;;;11.20;99.90;;;;;;5111789;27;20487;-82
2021/12/30 09:19:15;;;;;;;30.35;7.15;;;11.20;99.90;;;;;;5112386;27;20047;-82
2021/12/30 09:21:42;;;;;;;27.15;5.82;;;11.20;99.90;;;;;;5090026;28;20449;-83
2021/12/30 09:24:09;;;;;;;31.40;6.95;;;11.10;99.90;;;;;;5080559;27;20033;-82
2021/12/30 09:26:35;;;;;;;29.52;6.22;;;11.20;99.90;;;;;;5093300;27;20039;-82
2021/12/30 09:29:01;;;;;;;24.65;5.40;;;11.20;99.90;;;;;;5110093;27;20049;-82
2021/12/30 09:31:30;;;;;;;26.90;5.70;;;11.20;99.90;;;;;;5076881;27;20260;-83
2021/12/30 09:33:57;;;;;;;18.92;5.05;;;11.20;99.90;;;;;;5087917;27;20570;-82
2021/12/30 09:36:24;;;;;;;31.33;6.07;;;11.10;99.90;;;;;;5068516;27;20488;-84
2021/12/30 09:38:51;;;;;;;28.65;5.60;;;11.20;99.90;;;;;;5096972;27;20031;-82
2021/12/30 09:41:17;;;;;;;36.20;6.13;;;11.20;99.90;;;;;;5083485;27;20047;-84
2021/12/30 09:43:43;;;;;;;25.48;6.68;;;11.20;99.90;;;;;;5082619;27;20096;-83
2021/12/30 09:46:12;;;;;;;25.45;6.28;;;11.80;99.90;;;;;;5084091;27;20483;-83
2021/12/30 09:48:41;;;;;;;30.05;6.03;;;11.20;99.90;;;;;;5097606;27;20054;-81
2021/12/30 09:51:08;;;;;;;31.65;6.18;;;11.20;99.90;;;;;;5082793;27;20060;-82
2021/12/30 09:53:34;;;;;;;34.50;7.32;;;11.70;99.90;;;;;;5088128;27;20404;-83
2021/12/30 09:56:00;;;;;;;24.13;5.72;;;11.20;99.90;;;;;;5106196;27;20050;-81
2021/12/30 09:58:27;;;;;;;29.67;6.53;;;11.50;99.90;;;;;;5086110;28;20039;-82
2021/12/30 10:00:55;;;;;;;33.72;6.93;;;11.30;99.90;;;;;;5098657;27;20054;-82
2021/12/30 10:03:21;;;;;;;35.80;6.68;;;11.40;99.90;;;;;;5094767;27;20050;-83
2021/12/30 10:05:47;;;;;;;26.75;5.97;;;11.30;99.90;;;;;;5101483;27;20514;-83
2021/12/30 10:08:21;;;;;;;31.63;5.43;;;11.30;99.90;;;;;;5077025;28;20045;-83
2021/12/30 10:10:57;;;;;;;23.90;5.47;;;11.30;99.90;;;;;;5073104;27;20050;-83
2021/12/30 10:13:30;;;;;;;25.05;4.82;;;11.30;99.90;;;;;;5076547;27;20581;-82
2021/12/30 10:16:03;;;;;;;27.33;5.55;;;11.30;99.90;;;;;;5083498;27;20152;-83
2021/12/30 10:18:57;;;;;;;33.08;5.78;;;11.80;99.90;;;;;;5080283;27;20104;-83
2021/12/30 10:21:39;;;;;;;34.72;6.85;;;11.40;99.90;;;;;;5135769;27;20117;-84
2021/12/30 10:24:07;;;;;;;33.78;5.00;;;11.50;99.90;;;;;;5101069;27;20043;-81
2021/12/30 10:26:48;;;;;;;29.10;5.30;;;11.40;99.90;;;;;;5079311;28;20382;-81
2021/12/30 10:29:14;;;;;;;43.30;6.10;;;11.40;99.90;;;;;;5102036;27;20470;-81
2021/12/30 10:31:40;;;;;;;27.17;5.30;;;11.40;99.90;;;;;;5079821;27;20575;-81
2021/12/30 10:34:09;;;;;;;32.00;5.53;;;11.40;99.90;;;;;;5083825;27;20507;-81
2021/12/30 10:36:47;;;;;;;40.10;5.97;;;11.40;99.90;;;;;;5104072;27;20095;-81
2021/12/30 10:39:20;;;;;;;28.00;5.55;;;11.40;99.90;;;;;;5082708;27;20176;-81
2021/12/30 10:41:58;;;;;;;38.72;6.13;;;11.30;99.90;;;;;;5105239;27;20042;-81
2021/12/30 10:44:24;;;;;;;39.47;6.57;;;11.40;99.90;;;;;;5097833;27;20091;-81
2021/12/30 10:46:52;;;;;;;32.67;6.55;;;11.50;99.90;;;;;;5083870;27;20035;-82
2021/12/30 10:49:26;;;;;;;37.28;5.65;;;11.40;99.90;;;;;;5072331;28;20044;-80
2021/12/30 10:51:53;;;;;;;42.17;5.97;;;11.20;99.90;;;;;;5098779;27;20054;-81
2021/12/30 10:54:26;;;;;;;37.83;6.03;;;11.40;99.90;;;;;;5103138;27;20059;-80
2021/12/30 10:57:05;;;;;;;42.92;5.65;;;11.40;99.90;;;;;;5073920;27;20047;-81
2021/12/30 10:59:35;;;;;;;54.60;5.55;;;11.40;99.90;;;;;;5088188;27;20079;-82
2021/12/30 11:02:16;;;;;;;44.78;7.40;;;11.40;99.90;;;;;;5092898;27;20039;-81
2021/12/30 11:04:53;;;;;;;;;;;11.40;99.90;;;;;;5100548;27;20044;-81
2021/12/30 11:07:27;;;;;;;46.55;5.78;;;11.40;99.90;;;;;;5075322;27;19924;-81
2021/12/30 11:10:01;;;;;;;55.05;7.70;;;11.40;99.90;;;;;;5069529;27;20495;-82
2021/12/30 11:12:29;;;;;;;53.10;7.18;;;11.40;99.90;;;;;;5103935;27;20071;-81
2021/12/30 11:14:55;;;;;;;41.35;6.70;;;11.50;99.90;;;;;;5098163;27;20038;-81
2021/12/30 11:17:32;;;;;;;52.67;6.65;;;11.50;99.90;;;;;;5092841;28;20058;-82
2021/12/30 11:20:01;;;;;;;48.05;7.53;;;11.50;99.90;;;;;;5070623;27;20789;-81
2021/12/30 11:22:29;;;;;;;49.72;6.97;;;11.50;99.90;;;;;;5092420;27;20169;-81
2021/12/30 11:24:58;;;;;;;52.15;7.97;;;11.60;99.90;;;;;;5090527;27;20529;-81
2021/12/30 11:27:25;;;;;;;55.90;8.55;;;11.50;99.90;;;;;;5085717;28;20040;-81
2021/12/30 11:29:57;;;;;;;64.78;8.10;;;11.50;99.90;;;;;;5082314;27;20464;-82
2021/12/30 11:32:28;;;;;;;48.63;7.70;;;11.50;99.90;;;;;;5095682;28;20315;-83
2021/12/30 11:34:55;;;;;;;61.80;8.75;;;11.50;99.90;;;;;;5106108;27;20047;-82
2021/12/30 11:37:22;;;;;;;64.45;9.63;;;11.50;99.90;;;;;;5083281;27;20054;-81
2021/12/30 11:40:00;;;;;;;56.72;8.40;;;11.40;99.90;;;;;;5082368;27;20411;-82
2021/12/30 11:42:43;;;;;;;55.22;8.00;;;11.50;99.90;;;;;;5088476;27;20035;-81
2021/12/30 11:45:29;;;;;;;52.47;7.55;;;11.50;99.90;;;;;;5109846;27;20674;-81
2021/12/30 11:48:00;;;;;;;51.58;8.15;;;11.50;99.90;;;;;;5088715;27;20088;-83
2021/12/30 11:50:26;;;;;;;48.33;7.72;;;11.50;99.90;;;;;;5093575;28;20499;-82
2021/12/30 11:52:51;;;;;;;55.88;8.15;;;11.50;99.90;;;;;;5099529;27;20107;-82
2021/12/30 11:55:50;;;;;;;57.50;8.05;;;11.70;99.90;;;;;;5090145;27;20039;-82
2021/12/30 11:58:40;;;;;;;56.35;8.07;;;11.50;99.90;;;;;;5078928;28;20135;-82
2021/12/30 12:01:17;;;;;;;62.05;7.32;;;11.50;99.90;;;;;;5077682;27;20460;-82
2021/12/30 12:03:53;;;;;;;49.72;7.40;;;11.50;99.90;;;;;;5087899;27;20054;-82
2021/12/30 12:06:25;;;;;;;57.08;8.18;;;11.50;99.90;;;;;;5085521;28;20075;-82
2021/12/30 12:08:54;;;;;;;54.90;7.20;;;11.50;99.90;;;;;;5087806;27;20042;-81
2021/12/30 12:11:25;;;;;;;52.05;7.15;;;11.70;99.90;;;;;;5087608;27;20091;-82
2021/12/30 12:13:56;;;;;;;62.55;6.95;;;11.60;99.90;;;;;;5095790;27;20130;-81
2021/12/30 12:16:44;;;;;;;47.83;6.85;;;11.60;99.90;;;;;;5118098;27;20038;-83
2021/12/30 12:19:11;;;;;;;43.30;6.72;;;11.60;99.90;;;;;;5092984;27;20081;-83
2021/12/30 12:21:41;;;;;;;43.97;6.70;;;11.70;99.90;;;;;;5073066;28;20047;-83
2021/12/30 12:24:22;;;;;;;56.15;6.78;;;11.70;99.90;;;;;;5113665;27;20160;-83
2021/12/30 12:26:48;;;;;;;44.65;6.25;;;11.90;99.90;;;;;;5128229;27;20051;-82
2021/12/30 12:29:34;;;;;;;44.80;7.45;;;11.70;99.90;;;;;;5121783;27;20116;-83
2021/12/30 12:32:11;;;;;;;44.55;6.80;;;11.70;99.90;;;;;;5091785;27;20039;-83
2021/12/30 12:34:38;;;;;;;36.60;6.63;;;11.70;99.90;;;;;;5099137;28;20404;-82
2021/12/30 12:37:25;;;;;;;43.20;5.80;;;11.70;99.90;;;;;;5079791;28;20031;-83
2021/12/30 12:39:55;;;;;;;50.42;6.40;;;12.00;99.90;;;;;;5084721;27;20045;-82
2021/12/30 12:42:41;;;;;;;44.25;6.18;;;11.80;99.90;;;;;;5098140;27;20252;-82
2021/12/30 12:45:46;;;;;;;58.47;7.00;;;11.80;99.90;;;;;;5078820;28;20133;-82